Time;durP1;ratioP1;P1;durP2;ratioP2;P2;SDS_P1;SDS_P2;PMS_P1;PMS_P2;Temp;Humidity;BMP_temperature;BMP_pressure;BME280_temperature;BME280_humidity;BME280_pressure;Samples;Min_cycle;Max_cycle;Signal;HPM_P1;HPM_P2
2021/08/31 00:00:05;;;;;;;23.75;16.55;;;;;;;17.98;100.00;99372.58;1656817;85;21152;-77
2021/08/31 00:02:32;;;;;;;20.72;15.10;;;;;;;17.99;100.00;99374.26;1656278;86;21071;-76
2021/08/31 00:05:00;;;;;;;23.02;15.95;;;;;;;17.99;100.00;99379.59;1655072;85;21609;-76
2021/08/31 00:07:27;;;;;;;20.45;15.05;;;;;;;17.98;100.00;99371.25;1628688;86;21127;-77
2021/08/31 00:09:54;;;;;;;22.62;16.00;;;;;;;17.97;100.00;99366.91;1655123;85;21115;-76
2021/08/31 00:12:20;;;;;;;23.98;15.88;;;;;;;17.95;100.00;99370.17;1654888;85;21165;-76
2021/08/31 00:14:47;;;;;;;25.65;16.10;;;;;;;17.94;100.00;99371.13;1654964;85;21570;-76
2021/08/31 00:18:15;;;;;;;21.17;15.03;;;;;;;17.99;100.00;99382.25;1804361;78;23142;-77
2021/08/31 00:20:43;;;;;;;21.52;14.25;;;;;;;17.92;100.00;99389.03;1790783;80;20968;-77
2021/08/31 00:23:10;;;;;;;19.75;14.58;;;;;;;17.91;100.00;99394.02;1790662;80;21495;-76
2021/08/31 00:25:36;;;;;;;20.90;13.88;;;;;;;17.89;100.00;99398.61;1790552;80;21522;-77
2021/08/31 00:28:03;;;;;;;21.48;15.93;;;;;;;17.88;100.00;99403.59;1790398;80;21107;-76
2021/08/31 00:30:31;;;;;;;20.82;14.93;;;;;;;17.87;100.00;99410.71;1790849;80;21585;-78
2021/08/31 00:32:58;;;;;;;19.82;13.65;;;;;;;17.82;100.00;99411.08;1791719;80;20889;-76
2021/08/31 00:35:26;;;;;;;23.00;13.68;;;;;;;17.82;100.00;99409.73;1793272;80;21161;-77
2021/08/31 00:37:52;;;;;;;24.55;15.68;;;;;;;17.82;100.00;99405.75;1792432;80;21048;-76
2021/08/31 00:40:19;;;;;;;20.85;14.95;;;;;;;17.80;100.00;99402.32;1791396;80;21016;-75
2021/08/31 00:42:46;;;;;;;25.05;16.23;;;;;;;17.80;100.00;99393.48;1790669;80;21016;-74
2021/08/31 00:45:13;;;;;;;21.55;15.50;;;;;;;17.78;100.00;99396.30;1790852;80;21048;-75
2021/08/31 00:47:40;;;;;;;20.50;14.85;;;;;;;17.76;100.00;99388.03;1790559;80;21173;-76
2021/08/31 00:50:11;;;;;;;23.12;15.03;;;;;;;17.74;100.00;99405.48;1771008;80;21483;-77
2021/08/31 00:52:40;;;;;;;20.40;15.28;;;;;;;17.73;100.00;99414.42;1759295;81;21063;-77
2021/08/31 00:55:12;;;;;;;22.60;14.93;;;;;;;17.72;100.00;99418.06;1759501;81;21044;-77
2021/08/31 00:57:39;;;;;;;19.20;13.35;;;;;;;17.71;100.00;99423.02;1759109;81;21091;-76
2021/08/31 01:00:09;;;;;;;22.37;13.88;;;;;;;17.68;100.00;99428.59;1759268;81;21152;-76
2021/08/31 01:02:36;;;;;;;19.35;14.25;;;;;;;17.63;100.00;99421.45;1759080;81;21013;-76
2021/08/31 01:05:05;;;;;;;21.15;14.07;;;;;;;17.60;100.00;99427.02;1759615;81;21059;-77
2021/08/31 01:07:31;;;;;;;24.52;14.60;;;;;;;17.59;100.00;99427.97;1759408;80;21024;-75
2021/08/31 01:10:00;;;;;;;22.32;14.15;;;;;;;17.59;100.00;99430.63;1759609;80;21083;-77
2021/08/31 01:12:27;;;;;;;20.12;14.87;;;;;;;17.57;100.00;99429.90;1759268;81;21306;-76
2021/08/31 01:14:54;;;;;;;20.23;14.03;;;;;;;17.55;100.00;99429.16;1759348;80;21077;-76
2021/08/31 01:17:24;;;;;;;19.77;12.73;;;;;;;17.53;100.00;99430.63;1756612;81;21032;-76
2021/08/31 01:19:52;;;;;;;22.32;14.23;;;;;;;17.53;100.00;99429.77;1753927;80;21040;-77
2021/08/31 01:22:20;;;;;;;15.90;12.63;;;;;;;17.54;100.00;99427.48;1754239;81;21186;-75
2021/08/31 01:25:01;;;;;;;20.17;13.98;;;;;;;17.53;100.00;99427.97;1754153;81;21546;-77
2021/08/31 01:27:29;;;;;;;20.25;13.35;;;;;;;17.52;100.00;99426.26;1753907;81;21114;-76
2021/08/31 01:29:58;;;;;;;18.67;12.73;;;;;;;17.52;100.00;99432.08;1753424;81;21287;-77
2021/08/31 01:32:29;;;;;;;17.50;13.48;;;;;;;17.49;100.00;99430.50;1751051;81;21690;-76
2021/08/31 01:34:56;;;;;;;;;;;;;;;17.49;100.00;99430.50;1756167;81;21060;-76
2021/08/31 01:37:22;;;;;;;19.30;12.88;;;;;;;17.49;100.00;99431.83;1752870;81;21478;-76
2021/08/31 01:39:50;;;;;;;22.15;14.03;;;;;;;17.46;100.00;99436.53;1753691;80;21387;-75
2021/08/31 01:42:17;;;;;;;23.65;14.45;;;;;;;17.44;100.00;99435.80;1753710;80;21009;-76
2021/08/31 01:44:44;;;;;;;18.73;13.20;;;;;;;17.43;100.00;99428.30;1754167;81;21099;-75
2021/08/31 01:47:11;;;;;;;19.48;13.30;;;;;;;17.44;100.00;99434.46;1753701;81;21067;-76
2021/08/31 01:49:38;;;;;;;17.67;12.68;;;;;;;17.43;100.00;99436.77;1753451;80;21574;-76
2021/08/31 01:52:05;;;;;;;18.95;12.28;;;;;;;17.42;100.00;99437.27;1753512;81;21016;-75
2021/08/31 01:54:35;;;;;;;19.20;13.03;;;;;;;17.39;100.00;99438.34;1753464;81;21040;-75
2021/08/31 01:57:02;;;;;;;18.40;13.08;;;;;;;17.39;100.00;99442.34;1753549;81;21095;-75
2021/08/31 01:59:31;;;;;;;18.62;12.90;;;;;;;17.40;100.00;99445.35;1753607;81;21547;-75
2021/08/31 02:01:57;;;;;;;20.50;13.72;;;;;;;17.43;100.00;99446.09;1753607;81;21049;-75
2021/08/31 02:04:27;;;;;;;16.60;12.13;;;;;;;17.43;100.00;99451.41;1753869;81;21017;-75
2021/08/31 02:07:01;;;;;;;18.42;12.78;;;;;;;17.41;100.00;99451.52;1753372;81;21977;-75
2021/08/31 02:09:30;;;;;;;16.02;12.00;;;;;;;17.39;100.00;99451.66;1753622;81;21001;-76
2021/08/31 02:11:59;;;;;;;21.73;12.58;;;;;;;17.36;100.00;99454.53;1753706;81;21032;-75
2021/08/31 02:14:27;;;;;;;16.25;11.90;;;;;;;17.36;100.00;99451.87;1753442;81;21154;-76
2021/08/31 02:16:55;;;;;;;18.02;11.12;;;;;;;17.35;100.00;99446.69;1753525;81;21024;-77
2021/08/31 02:19:25;;;;;;;14.50;10.63;;;;;;;17.32;100.00;99450.43;1753345;81;21566;-75
2021/08/31 02:21:53;;;;;;;15.78;10.90;;;;;;;17.31;100.00;99452.70;1753669;81;21057;-75
2021/08/31 02:24:21;;;;;;;17.98;11.53;;;;;;;17.29;100.00;99450.64;1753957;81;21051;-75
2021/08/31 02:26:50;;;;;;;14.15;10.78;;;;;;;17.28;100.00;99450.29;1753675;81;21105;-76
2021/08/31 02:29:17;;;;;;;19.02;12.10;;;;;;;17.27;100.00;99447.24;1753562;81;21056;-76
2021/08/31 02:31:48;;;;;;;19.95;11.75;;;;;;;17.25;100.00;99445.17;1753541;81;21064;-76
2021/08/31 02:34:15;;;;;;;22.05;12.33;;;;;;;17.23;100.00;99451.13;1753441;81;21052;-76
2021/08/31 02:36:41;;;;;;;16.32;11.43;;;;;;;17.22;100.00;99452.07;1753530;81;21028;-76
2021/08/31 02:39:08;;;;;;;17.48;11.73;;;;;;;17.21;100.00;99445.06;1753793;81;21099;-76
2021/08/31 02:41:35;;;;;;;17.62;12.63;;;;;;;17.21;100.00;99451.72;1753502;81;21558;-75
2021/08/31 02:44:02;;;;;;;17.23;11.63;;;;;;;17.21;100.00;99445.06;1726053;81;21083;-75
2021/08/31 02:46:29;;;;;;;17.52;11.05;;;;;;;17.20;100.00;99452.67;1753658;81;21091;-77
2021/08/31 02:48:56;;;;;;;18.60;11.03;;;;;;;17.20;100.00;99457.98;1753866;81;21586;-75
2021/08/31 02:51:22;;;;;;;16.50;11.73;;;;;;;17.19;100.00;99460.30;1754651;81;22137;-77
2021/08/31 02:53:50;;;;;;;15.00;10.03;;;;;;;17.18;100.00;99459.91;1754791;81;21051;-77
2021/08/31 02:56:16;;;;;;;16.73;10.30;;;;;;;17.15;100.00;99467.64;1753876;81;21052;-76
2021/08/31 02:58:43;;;;;;;18.55;10.48;;;;;;;17.14;100.00;99469.11;1754285;81;21491;-75
2021/08/31 03:01:33;;;;;;;17.67;11.25;;;;;;;17.13;100.00;99474.05;1769253;80;20970;-75
2021/08/31 03:03:58;;;;;;;17.60;10.65;;;;;;;17.14;100.00;99467.78;1784900;80;21209;-76
2021/08/31 03:06:26;;;;;;;19.55;10.82;;;;;;;17.16;100.00;99461.84;1787536;80;20978;-77
2021/08/31 03:08:53;;;;;;;16.50;10.53;;;;;;;17.15;100.00;99467.64;1789070;78;21017;-77
2021/08/31 03:11:20;;;;;;;15.10;10.10;;;;;;;17.15;100.00;99467.64;1788912;80;20986;-75
2021/08/31 03:13:48;;;;;;;15.45;9.95;;;;;;;17.17;100.00;99468.87;1786311;80;21075;-76
2021/08/31 03:16:16;;;;;;;16.73;10.35;;;;;;;17.18;100.00;99471.88;1784843;80;21389;-77
2021/08/31 03:18:43;;;;;;;14.43;9.50;;;;;;;17.16;100.00;99473.34;1784433;80;21032;-77
2021/08/31 03:21:09;;;;;;;15.83;10.20;;;;;;;17.18;100.00;99477.20;1784907;80;22237;-76
2021/08/31 03:23:36;;;;;;;18.32;10.65;;;;;;;17.18;100.00;99474.55;1784684;80;21029;-77
2021/08/31 03:26:08;;;;;;;16.52;9.25;;;;;;;17.21;100.00;99474.34;1784669;80;21088;-76
2021/08/31 03:28:34;;;;;;;14.15;10.18;;;;;;;17.22;100.00;99478.68;1784458;80;21518;-76
2021/08/31 03:31:02;;;;;;;24.70;10.72;;;;;;;17.24;100.00;99479.91;1784350;80;21120;-75
2021/08/31 03:33:32;;;;;;;16.75;10.15;;;;;;;17.25;100.00;99482.43;1784436;80;21512;-77
2021/08/31 03:36:00;;;;;;;20.00;12.25;;;;;;;17.24;100.00;99471.44;1784605;80;21029;-76
2021/08/31 03:38:26;;;;;;;18.15;12.60;;;;;;;17.23;100.00;99480.39;1785370;80;21075;-77
2021/08/31 03:40:52;;;;;;;20.57;13.62;;;;;;;17.20;100.00;99487.25;1785190;80;21567;-76
2021/08/31 03:43:19;;;;;;;21.45;12.55;;;;;;;17.15;100.00;99486.76;1784919;80;21123;-76
2021/08/31 03:45:45;;;;;;;18.92;12.45;;;;;;;17.12;100.00;99487.00;1784664;80;20993;-76
2021/08/31 03:48:12;;;;;;;16.75;11.60;;;;;;;17.07;100.00;99490.45;1784888;80;21080;-76
2021/08/31 03:50:40;;;;;;;34.03;13.05;;;;;;;17.03;100.00;99489.01;1784515;80;20989;-76
2021/08/31 03:53:06;;;;;;;18.42;12.00;;;;;;;16.99;100.00;99483.05;1784997;80;22134;-79
2021/08/31 03:55:37;;;;;;;19.65;13.22;;;;;;;16.99;100.00;99477.24;1784611;80;21103;-77
2021/08/31 03:58:07;;;;;;;17.92;11.68;;;;;;;16.96;100.00;99477.97;1785466;80;21470;-76
2021/08/31 04:00:34;;;;;;;19.12;12.20;;;;;;;16.91;100.00;99477.44;1784951;80;21029;-78
2021/08/31 04:03:04;;;;;;;19.27;12.80;;;;;;;16.85;100.00;99482.73;1784766;80;21005;-71
2021/08/31 04:05:31;;;;;;;19.52;11.97;;;;;;;16.85;100.00;99480.56;1784643;80;21918;-76
2021/08/31 04:08:03;;;;;;;21.23;11.75;;;;;;;16.84;100.00;99477.06;1784311;80;21527;-75
2021/08/31 04:10:30;;;;;;;17.62;11.73;;;;;;;16.84;100.00;99482.84;1784237;80;21037;-77
2021/08/31 04:13:00;;;;;;;15.88;10.95;;;;;;;16.85;100.00;99481.41;1756233;80;21013;-74
2021/08/31 04:15:28;;;;;;;17.85;11.38;;;;;;;16.83;100.00;99480.67;1781700;80;21321;-75
2021/08/31 04:17:55;;;;;;;15.78;11.00;;;;;;;16.82;100.00;99486.96;1784458;80;21628;-76
2021/08/31 04:20:22;;;;;;;21.45;12.20;;;;;;;16.81;100.00;99485.25;1784136;80;21061;-76
2021/08/31 04:22:50;;;;;;;19.17;12.40;;;;;;;16.81;100.00;99486.58;1784524;80;21304;-76
2021/08/31 04:25:17;;;;;;;22.75;12.28;;;;;;;16.81;100.00;99487.91;1784281;80;21013;-78
2021/08/31 04:27:44;;;;;;;19.50;11.20;;;;;;;16.85;100.00;99484.06;1784379;80;22116;-76
2021/08/31 04:30:13;;;;;;;17.67;12.55;;;;;;;16.86;100.00;99490.23;1784095;80;21102;-77
2021/08/31 04:32:39;;;;;;;15.28;11.25;;;;;;;16.87;100.00;99484.81;1784294;80;21611;-77
2021/08/31 04:35:07;;;;;;;20.77;12.18;;;;;;;16.88;100.00;99485.16;1784336;80;21056;-77
2021/08/31 04:37:33;;;;;;;17.40;11.90;;;;;;;16.89;100.00;99488.20;1784651;80;21045;-78
2021/08/31 04:40:00;;;;;;;15.95;11.00;;;;;;;16.91;100.00;99492.94;1784654;80;21104;-77
2021/08/31 04:42:28;;;;;;;19.25;11.30;;;;;;;16.93;100.00;99492.34;1784825;80;21993;-78
2021/08/31 04:44:56;;;;;;;17.30;11.12;;;;;;;16.94;100.00;99492.70;1784360;80;21503;-76
2021/08/31 04:47:23;;;;;;;14.33;10.10;;;;;;;16.97;100.00;99491.13;1784706;80;21583;-77
2021/08/31 04:49:52;;;;;;;20.32;11.97;;;;;;;17.02;100.00;99497.45;1784288;80;21013;-76
2021/08/31 04:52:18;;;;;;;13.50;9.83;;;;;;;17.04;100.00;99488.03;1784552;80;21539;-77
2021/08/31 04:54:45;;;;;;;18.77;10.82;;;;;;;17.07;100.00;99488.67;1775026;80;22109;-77
2021/08/31 04:57:11;;;;;;;19.07;11.90;;;;;;;17.10;100.00;99487.59;1753957;81;21041;-77
2021/08/31 04:59:38;;;;;;;27.60;11.53;;;;;;;17.13;100.00;99480.21;1753775;81;21041;-78
2021/08/31 05:02:05;;;;;;;21.70;11.40;;;;;;;17.17;100.00;99481.69;1754160;81;21025;-76
2021/08/31 05:04:35;;;;;;;18.67;11.08;;;;;;;17.21;100.00;99488.97;1755260;81;21043;-77
2021/08/31 05:07:04;;;;;;;20.77;12.58;;;;;;;17.25;100.00;99489.08;1756555;81;21123;-77
2021/08/31 05:09:32;;;;;;;20.90;11.65;;;;;;;17.26;100.00;99492.62;1754674;81;21595;-76
2021/08/31 05:11:58;;;;;;;21.07;12.47;;;;;;;17.23;100.00;99493.70;1754258;81;20989;-76
2021/08/31 05:14:25;;;;;;;21.20;12.55;;;;;;;17.16;100.00;99495.09;1753807;81;21024;-77
2021/08/31 05:16:53;;;;;;;18.35;11.43;;;;;;;17.13;100.00;99497.98;1753538;81;21031;-76
2021/08/31 05:19:19;;;;;;;18.77;11.75;;;;;;;17.11;100.00;99503.91;1748998;81;21134;-78
2021/08/31 05:21:50;;;;;;;20.60;12.47;;;;;;;17.07;100.00;99510.41;1747884;82;21105;-78
2021/08/31 05:24:16;;;;;;;25.75;11.20;;;;;;;17.08;100.00;99510.79;1718809;82;21086;-78
2021/08/31 05:26:44;;;;;;;19.37;10.60;;;;;;;17.08;100.00;99518.77;1747729;82;21005;-77
2021/08/31 05:29:13;;;;;;;14.80;10.32;;;;;;;17.06;100.00;99520.69;1747916;82;21044;-78
2021/08/31 05:31:45;;;;;;;13.88;9.63;;;;;;;17.06;100.00;99531.33;1718121;82;21066;-78
2021/08/31 05:34:13;;;;;;;14.45;8.93;;;;;;;17.05;100.00;99519.01;1748375;82;21067;-76
2021/08/31 05:36:40;;;;;;;10.85;8.60;;;;;;;17.04;100.00;99519.95;1748007;82;21148;-77
2021/08/31 05:39:07;;;;;;;13.55;8.05;;;;;;;17.04;100.00;99510.64;1748242;82;21072;-77
2021/08/31 05:41:35;;;;;;;12.65;8.85;;;;;;;17.09;100.00;99513.80;1747981;82;21017;-77
2021/08/31 05:44:02;;;;;;;14.13;9.63;;;;;;;17.12;100.00;99514.93;1748277;82;21579;-77
2021/08/31 05:46:31;;;;;;;12.78;8.15;;;;;;;17.12;100.00;99514.93;1748185;82;21013;-78
2021/08/31 05:48:58;;;;;;;9.70;7.58;;;;;;;17.13;100.00;99517.94;1748090;82;21069;-77
2021/08/31 05:51:24;;;;;;;11.50;7.67;;;;;;;17.14;100.00;99517.00;1748036;82;21076;-78
2021/08/31 05:53:51;;;;;;;10.80;6.65;;;;;;;17.20;100.00;99512.53;1748253;82;21044;-78
2021/08/31 05:56:18;;;;;;;13.53;6.70;;;;;;;17.35;100.00;99518.05;1777696;80;21479;-79
2021/08/31 05:58:45;;;;;;;10.38;6.53;;;;;;;17.53;100.00;99514.49;1778805;80;21523;-77
2021/08/31 06:01:12;;;;;;;8.78;5.87;;;;;;;17.78;100.00;99518.80;1778985;80;21034;-78
2021/08/31 06:03:40;;;;;;;10.95;6.85;;;;;;;18.06;100.00;99516.70;1778757;80;21013;-77
2021/08/31 06:06:08;;;;;;;7.92;5.80;;;;;;;18.49;99.41;99519.95;1778907;80;20993;-75
2021/08/31 06:08:35;;;;;;;17.27;5.72;;;;;;;19.14;96.12;99517.44;1779417;80;21569;-77
2021/08/31 06:11:02;;;;;;;8.55;5.90;;;;;;;19.92;91.45;99514.91;1778578;80;21080;-77
2021/08/31 06:13:29;;;;;;;8.80;5.05;;;;;;;20.83;88.76;99509.70;1779088;80;21116;-77
2021/08/31 06:15:58;;;;;;;5.50;4.58;;;;;;;21.69;82.14;99504.53;1778924;80;21693;-77
2021/08/31 06:18:24;;;;;;;14.15;5.37;;;;;;;22.34;77.97;99510.89;1780503;80;21557;-77
2021/08/31 06:20:51;;;;;;;8.03;4.80;;;;;;;22.97;74.89;99508.78;1784649;80;22010;-77
2021/08/31 06:23:18;;;;;;;6.53;4.45;;;;;;;23.28;69.48;99506.26;1784897;80;21184;-76
2021/08/31 06:25:45;;;;;;;9.60;5.25;;;;;;;23.55;68.69;99502.13;1784428;80;21310;-77
2021/08/31 06:28:12;;;;;;;7.12;4.85;;;;;;;24.02;67.63;99507.23;1784578;80;21052;-78
2021/08/31 06:30:38;;;;;;;10.32;4.30;;;;;;;24.58;64.22;99502.83;1784579;80;21024;-77
2021/08/31 06:33:05;;;;;;;5.15;4.03;;;;;;;25.16;60.95;99499.27;1784702;80;21160;-79
2021/08/31 06:35:31;;;;;;;4.33;3.92;;;;;;;25.64;58.11;99507.59;1784498;80;21088;-78
2021/08/31 06:37:58;;;;;;;8.25;4.22;;;;;;;25.96;57.56;99498.66;1784524;80;21151;-77
2021/08/31 06:40:25;;;;;;;7.25;4.40;;;;;;;26.33;56.53;99506.66;1784641;80;21488;-77
2021/08/31 06:42:53;;;;;;;11.10;4.08;;;;;;;26.70;55.62;99501.14;1784568;80;21519;-77
2021/08/31 06:45:20;;;;;;;4.95;3.87;;;;;;;27.08;52.72;99497.20;1784800;80;21712;-76
2021/08/31 06:47:47;;;;;;;4.37;3.27;;;;;;;27.45;51.67;99501.02;1784398;80;21021;-78
2021/08/31 06:50:16;;;;;;;4.53;3.42;;;;;;;27.71;48.95;99496.08;1784517;80;21029;-78
2021/08/31 06:52:44;;;;;;;6.58;3.45;;;;;;;28.00;49.60;99498.55;1784949;80;21016;-78
2021/08/31 06:55:13;;;;;;;5.28;3.25;;;;;;;28.19;47.31;99500.70;1769144;80;21079;-78
2021/08/31 06:57:40;;;;;;;8.75;3.00;;;;;;;28.34;46.45;99495.27;1753677;81;21944;-78
2021/08/31 07:00:08;;;;;;;3.52;2.75;;;;;;;28.39;44.59;99502.83;1753860;81;22202;-76
2021/08/31 07:02:36;;;;;;;6.35;2.83;;;;;;;28.51;44.01;99493.26;1753806;81;21040;-76
2021/08/31 07:05:04;;;;;;;3.95;2.90;;;;;;;28.64;42.60;99504.27;1754026;81;21135;-75
2021/08/31 07:07:30;;;;;;;4.17;2.60;;;;;;;28.58;42.98;99505.02;1754074;81;21558;-77
2021/08/31 07:09:57;;;;;;;5.55;2.45;;;;;;;28.56;42.69;99501.65;1753794;81;21130;-75
2021/08/31 07:12:23;;;;;;;7.20;2.80;;;;;;;28.50;42.15;99505.10;1753617;81;21049;-78
2021/08/31 07:14:53;;;;;;;7.95;2.47;;;;;;;28.50;42.74;99512.39;1753976;81;21024;-76
2021/08/31 07:17:20;;;;;;;3.12;2.40;;;;;;;28.61;41.93;99518.69;1753949;81;21028;-77
2021/08/31 07:19:48;;;;;;;2.75;2.20;;;;;;;28.87;41.91;99519.53;1750383;81;21036;-76
2021/08/31 07:22:17;;;;;;;3.58;2.58;;;;;;;29.19;41.53;99526.91;1752658;81;21439;-76
2021/08/31 07:24:44;;;;;;;5.80;2.62;;;;;;;29.43;41.12;99522.47;1749180;82;21312;-77
2021/08/31 07:27:13;;;;;;;4.22;2.30;;;;;;;29.60;38.58;99514.06;1749502;82;21254;-77
2021/08/31 07:29:39;;;;;;;4.00;2.40;;;;;;;29.45;38.74;99516.86;1748654;82;21060;-77
2021/08/31 07:32:07;;;;;;;3.85;1.80;;;;;;;29.43;38.45;99521.64;1748218;82;21048;-77
2021/08/31 07:34:34;;;;;;;2.67;2.17;;;;;;;29.43;38.74;99525.19;1748296;82;21531;-77
2021/08/31 07:37:02;;;;;;;4.60;1.90;;;;;;;29.53;38.24;99532.16;1747904;82;21591;-77
2021/08/31 07:39:31;;;;;;;12.78;2.65;;;;;;;29.57;37.92;99534.29;1748255;82;21053;-76
2021/08/31 07:41:59;;;;;;;4.10;2.37;;;;;;;29.68;38.40;99531.61;1748507;82;21542;-77
2021/08/31 07:44:27;;;;;;;3.45;2.25;;;;;;;29.68;38.40;99531.61;1748292;82;21096;-75
2021/08/31 07:46:57;;;;;;;8.65;2.70;;;;;;;29.77;38.61;99526.36;1748414;82;21300;-79
2021/08/31 07:49:27;;;;;;;3.12;2.45;;;;;;;30.15;37.91;99532.80;1748177;82;21076;-77
2021/08/31 07:51:55;;;;;;;3.17;2.30;;;;;;;30.47;37.44;99534.59;1747760;82;21048;-77
2021/08/31 07:54:22;;;;;;;2.35;2.15;;;;;;;30.56;37.29;99539.35;1752513;80;21045;-76
2021/08/31 07:56:48;;;;;;;3.87;2.50;;;;;;;30.57;36.48;99530.14;1779026;80;21557;-78
2021/08/31 07:59:15;;;;;;;8.98;2.70;;;;;;;30.30;36.35;99528.13;1778934;80;21600;-77
2021/08/31 08:01:41;;;;;;;9.50;2.70;;;;;;;30.44;36.68;99529.05;1779269;80;21034;-77
2021/08/31 08:04:07;;;;;;;4.45;2.62;;;;;;;30.72;35.87;99526.25;1779489;80;21037;-78
2021/08/31 08:06:36;;;;;;;3.90;2.52;;;;;;;30.87;34.96;99528.01;1780015;80;20966;-76
2021/08/31 08:09:03;;;;;;;6.03;2.95;;;;;;;30.94;35.60;99531.59;1783472;77;21120;-77
2021/08/31 08:11:31;;;;;;;5.40;2.50;;;;;;;31.01;35.40;99527.00;1783611;78;21038;-77
2021/08/31 08:13:57;;;;;;;3.52;2.20;;;;;;;30.96;35.72;99532.22;1783017;78;21013;-77
2021/08/31 08:16:25;;;;;;;3.05;2.42;;;;;;;30.84;34.50;99525.18;1779278;80;21084;-78
2021/08/31 08:18:52;;;;;;;10.28;2.65;;;;;;;30.43;34.89;99523.80;1776381;80;21003;-75
2021/08/31 08:21:22;;;;;;;3.72;2.30;;;;;;;30.16;35.24;99518.69;1787940;80;21040;-78
2021/08/31 08:23:51;;;;;;;2.70;2.30;;;;;;;30.14;35.57;99521.63;1788190;80;21156;-78
2021/08/31 08:26:17;;;;;;;3.05;2.40;;;;;;;30.08;35.36;99522.41;1787928;80;21001;-78
2021/08/31 08:28:44;;;;;;;4.05;2.50;;;;;;;30.42;35.47;99531.65;1787896;80;21032;-77
2021/08/31 08:31:11;;;;;;;9.20;2.40;;;;;;;30.42;35.47;99531.65;1787835;80;21103;-78
2021/08/31 08:33:38;;;;;;;4.00;2.60;;;;;;;30.59;34.73;99523.47;1788040;80;21087;-78
2021/08/31 08:36:07;;;;;;;3.60;2.70;;;;;;;30.62;35.09;99529.88;1787840;80;21476;-78
2021/08/31 08:38:34;;;;;;;6.87;2.83;;;;;;;30.64;35.83;99527.77;1788257;80;21028;-78
2021/08/31 08:41:06;;;;;;;3.67;2.55;;;;;;;30.71;35.45;99521.87;1788209;80;21032;-77
2021/08/31 08:43:34;;;;;;;6.17;2.62;;;;;;;30.92;34.11;99524.15;1788370;80;21092;-78
2021/08/31 08:46:06;;;;;;;4.83;2.40;;;;;;;30.85;34.25;99524.65;1787781;80;21076;-77
2021/08/31 08:48:33;;;;;;;3.70;2.40;;;;;;;31.01;34.49;99527.53;1788920;80;21299;-76
2021/08/31 08:51:03;;;;;;;4.40;2.50;;;;;;;31.28;34.98;99531.16;1788056;80;21016;-77
2021/08/31 08:53:32;;;;;;;7.75;2.90;;;;;;;31.23;33.30;99538.58;1788077;80;21053;-77
2021/08/31 08:56:00;;;;;;;4.25;2.95;;;;;;;31.08;34.14;99531.97;1762464;80;21031;-77
2021/08/31 08:58:28;;;;;;;5.25;3.00;;;;;;;31.21;35.03;99530.31;1756763;81;21044;-78
2021/08/31 09:01:04;;;;;;;5.20;3.30;;;;;;;31.26;34.19;99538.69;1757419;81;21473;-78
2021/08/31 09:03:38;;;;;;;7.55;3.47;;;;;;;30.96;34.90;99536.30;1756849;81;21575;-78
2021/08/31 09:06:10;;;;;;;8.55;3.10;;;;;;;30.45;34.95;99533.95;1756844;81;21495;-78
2021/08/31 09:08:45;;;;;;;8.65;3.15;;;;;;;30.16;34.69;99533.13;1756749;81;21033;-77
2021/08/31 09:11:24;;;;;;;6.92;3.35;;;;;;;30.06;36.07;99530.74;1753296;81;21504;-77
2021/08/31 09:13:52;;;;;;;4.55;3.22;;;;;;;30.17;36.09;99520.39;1756714;81;21029;-76
2021/08/31 09:16:28;;;;;;;6.83;3.40;;;;;;;30.17;36.31;99521.75;1756327;81;21084;-76
2021/08/31 09:18:57;;;;;;;10.60;3.67;;;;;;;30.34;35.31;99526.36;1756262;81;21561;-77
2021/08/31 09:21:28;;;;;;;6.97;3.60;;;;;;;30.45;35.09;99520.37;1753352;81;20992;-78
2021/08/31 09:23:58;;;;;;;11.63;4.00;;;;;;;30.66;35.33;99527.05;1753828;81;21040;-77
2021/08/31 09:26:41;;;;;;;4.85;3.17;;;;;;;30.65;34.59;99534.90;1753636;81;21056;-78
2021/08/31 09:29:20;;;;;;;4.83;3.30;;;;;;;30.68;34.35;99528.22;1752021;81;21535;-78
2021/08/31 09:31:55;;;;;;;5.37;3.17;;;;;;;30.55;34.61;99535.77;1753459;81;22242;-77
2021/08/31 09:34:36;;;;;;;5.75;3.60;;;;;;;30.70;33.56;99537.02;1754040;81;21052;-77
2021/08/31 09:37:27;;;;;;;3.47;3.17;;;;;;;30.76;33.58;99535.35;1748611;81;21107;-78
2021/08/31 09:40:10;;;;;;;3.40;3.10;;;;;;;30.71;34.58;99523.73;1753828;81;21962;-76
2021/08/31 09:43:04;;;;;;;3.35;3.05;;;;;;;30.66;33.09;99535.20;1753568;81;21040;-78
2021/08/31 09:45:34;;;;;;;5.22;3.00;;;;;;;30.66;33.09;99535.20;1726240;81;21060;-78
2021/08/31 09:48:03;;;;;;;4.17;3.22;;;;;;;30.13;33.87;99541.66;1726837;81;21029;-78
2021/08/31 09:50:35;;;;;;;3.25;2.72;;;;;;;29.75;35.31;99539.28;1753870;81;21005;-78
2021/08/31 09:53:14;;;;;;;5.42;3.33;;;;;;;29.86;34.72;99542.83;1754613;81;21502;-77
2021/08/31 09:55:43;;;;;;;7.80;3.00;;;;;;;30.06;34.58;99540.77;1754547;81;21072;-78
2021/08/31 09:58:23;;;;;;;4.55;2.87;;;;;;;30.00;34.31;99544.27;1754503;81;21092;-77
2021/08/31 10:00:53;;;;;;;7.00;2.80;;;;;;;30.06;34.21;99548.91;1757318;81;21115;-78
2021/08/31 10:03:22;;;;;;;3.27;2.80;;;;;;;30.22;33.03;99549.97;1758643;79;20977;-77
2021/08/31 10:05:51;;;;;;;3.90;2.90;;;;;;;30.09;33.19;99539.01;1753797;81;21103;-77
2021/08/31 10:08:19;;;;;;;6.25;2.85;;;;;;;29.57;33.73;99552.45;1753556;81;21052;-77
2021/08/31 10:10:50;;;;;;;3.60;3.20;;;;;;;29.03;35.11;99541.50;1753832;81;21032;-79
2021/08/31 10:13:22;;;;;;;3.95;2.70;;;;;;;28.80;35.32;99552.48;1753730;81;22221;-77
2021/08/31 10:15:52;;;;;;;6.12;3.25;;;;;;;28.76;35.51;99547.11;1753656;81;21052;-77
2021/08/31 10:18:23;;;;;;;4.45;3.02;;;;;;;28.65;36.20;99547.92;1753389;81;21153;-78
2021/08/31 10:21:13;;;;;;;2.85;2.40;;;;;;;28.84;34.97;99547.02;1753351;81;21523;-78
2021/08/31 10:23:46;;;;;;;3.60;2.80;;;;;;;28.96;34.49;99550.91;1726642;81;21017;-78
2021/08/31 10:26:31;;;;;;;5.33;2.70;;;;;;;28.45;34.16;99552.20;1753575;81;21619;-77
2021/08/31 10:29:26;;;;;;;5.97;2.83;;;;;;;28.36;34.83;99558.73;1753607;81;21076;-78
2021/08/31 10:31:55;;;;;;;3.72;2.52;;;;;;;28.72;35.67;99556.14;1753568;81;21427;-77
2021/08/31 10:34:39;;;;;;;4.30;2.60;;;;;;;29.00;34.50;99554.92;1754363;81;20973;-77
2021/08/31 10:37:13;;;;;;;2.95;2.62;;;;;;;29.20;34.05;99562.50;1756133;81;21009;-77
2021/08/31 10:39:55;;;;;;;8.00;2.83;;;;;;;29.16;34.35;99562.02;1755016;81;20971;-79
2021/08/31 10:42:31;;;;;;;4.55;2.70;;;;;;;29.03;34.44;99562.70;1754143;81;21101;-77
2021/08/31 10:45:01;;;;;;;6.42;2.62;;;;;;;28.83;33.39;99567.03;1753734;81;21516;-77
2021/08/31 10:47:39;;;;;;;3.50;2.98;;;;;;;28.62;34.57;99560.50;1753644;81;20996;-77
2021/08/31 10:50:12;;;;;;;3.52;2.75;;;;;;;28.41;34.33;99560.36;1753703;81;21039;-78
2021/08/31 10:52:46;;;;;;;2.80;2.45;;;;;;;28.22;34.67;99561.23;1753544;81;21107;-78
2021/08/31 10:55:27;;;;;;;3.33;2.45;;;;;;;27.76;35.94;99568.05;1753828;81;21219;-78
2021/08/31 10:57:58;;;;;;;5.03;2.35;;;;;;;27.54;35.76;99563.52;1753768;81;21942;-77
2021/08/31 11:00:30;;;;;;;3.83;2.45;;;;;;;27.51;36.40;99566.56;1754519;81;21028;-77
2021/08/31 11:02:59;;;;;;;6.42;2.55;;;;;;;27.52;36.70;99554.73;1754533;81;21005;-78
2021/08/31 11:05:27;;;;;;;5.75;2.45;;;;;;;27.81;35.70;99557.55;1754482;81;20986;-77
2021/08/31 11:08:04;;;;;;;3.05;2.15;;;;;;;28.10;34.33;99555.95;1756184;81;20953;-77
2021/08/31 11:10:36;;;;;;;3.45;2.15;;;;;;;28.06;35.03;99567.33;1758585;79;21468;-78
2021/08/31 11:13:17;;;;;;;3.35;2.20;;;;;;;28.26;35.10;99565.78;1758483;79;21205;-74
2021/08/31 11:15:48;;;;;;;2.65;1.98;;;;;;;28.61;35.25;99566.93;1757190;78;20973;-78
2021/08/31 11:18:19;;;;;;;4.60;2.40;;;;;;;28.83;34.33;99564.31;1753909;81;21013;-77
2021/08/31 11:20:47;;;;;;;2.55;2.00;;;;;;;28.77;32.89;99563.70;1754057;81;21515;-77
2021/08/31 11:23:21;;;;;;;2.47;1.70;;;;;;;28.52;33.69;99563.98;1753890;81;21056;-78
2021/08/31 11:25:56;;;;;;;2.35;1.95;;;;;;;28.20;33.57;99571.40;1754068;81;21087;-76
2021/08/31 11:28:28;;;;;;;4.95;2.80;;;;;;;28.11;34.61;99565.73;1755019;81;21032;-77
2021/08/31 11:31:11;;;;;;;4.50;2.25;;;;;;;28.20;34.97;99559.22;1753659;81;21091;-76